PrentiSS Brown — WDE6848 — position and weather

sailwx.info

Track history (hours):
 
Tides and Currents Weather Stations Pressure Air Temp Water Temp Dewpoint Dewpoint Depression Visibility Wind Speed Wind Dir Waves Ship Positions

PrentiSS Brown

Owner: Port City Marine Services Inc, Muskegon, MI. More information available from US FCC via Universal Licensing System and Coast Guard Vessel Documentation Center.

Last reported at 2014-Nov-23 20:33 UTC. Time now 2014-Nov-23 21:23 UTC.
Position N 45°16' W 085°32'.

; draft 5.1 m.

Type: Other ship. MMSI: 366922280.

Date/timePositionNaut miles runAvg speedWind from/ knotsBaromVisibWave heightAir tempDewpointWater temp
2014-Nov-23 20:33N 45°16' W 085°32'10 9.8
2014-Nov-23 19:33N 45°11' W 085°44'9 7.9
2014-Nov-23 18:28N 45°08' W 085°55'17 8.8
2014-Nov-23 16:33N 45°23' W 086°08'  
2014-Nov-16 11:34N 45°19' W 085°18'0 0.1
2014-Nov-16 10:33N 45°19' W 085°18'0 0.0
2014-Nov-16 09:33N 45°19' W 085°18'0 0.0
2014-Nov-16 08:33N 45°19' W 085°18'0 0.0
2014-Nov-16 07:34N 45°19' W 085°18'0 0.0
2014-Nov-16 06:33N 45°19' W 085°18'0 0.0
2014-Nov-16 05:34N 45°19' W 085°18'0 0.0
2014-Nov-16 04:33N 45°19' W 085°18'0 0.0
2014-Nov-16 03:33N 45°19' W 085°18'0 0.0
2014-Nov-16 02:33N 45°19' W 085°18'0 0.0
2014-Nov-16 01:33N 45°19' W 085°18'0 0.0
2014-Nov-16 00:33N 45°19' W 085°18'0 0.0
2014-Nov-15 23:33N 45°19' W 085°18'0 0.0
2014-Nov-15 22:34N 45°19' W 085°18'0 0.0
2014-Nov-15 21:33N 45°19' W 085°18'0 0.0
2014-Nov-15 20:33N 45°19' W 085°18'0 0.0
2014-Nov-15 19:33N 45°19' W 085°18'0 0.0
2014-Nov-15 18:34N 45°19' W 085°18'0 0.0
2014-Nov-15 17:34N 45°19' W 085°18'0 0.0
2014-Nov-15 16:33N 45°19' W 085°18'0 0.0
2014-Nov-15 15:33N 45°19' W 085°18'1 1.1
2014-Nov-15 14:34N 45°20' W 085°17'1 0.9
2014-Nov-15 13:34N 45°19' W 085°17'0 0.0
2014-Nov-15 12:33N 45°19' W 085°17'0 0.0
2014-Nov-15 11:33N 45°19' W 085°17'0 0.0
2014-Nov-15 10:33N 45°19' W 085°17'0 0.0
2014-Nov-15 09:34N 45°19' W 085°17'2 2.1
2014-Nov-15 08:34N 45°20' W 085°20'10 9.6
2014-Nov-15 07:33N 45°15' W 085°32'9 9.5
2014-Nov-15 06:33N 45°10' W 085°43'  
Track history (hours):
 
Tides and Currents Weather Stations Pressure Air Temp Water Temp Dewpoint Dewpoint Depression Visibility Wind Speed Wind Dir Waves Ship Positions

PrentiSS Brown

Owner: Port City Marine Services Inc, Muskegon, MI. More information available from US FCC via Universal Licensing System and Coast Guard Vessel Documentation Center.

Last reported at 2014-Nov-23 20:33 UTC. Time now 2014-Nov-23 21:23 UTC.
Position N 45°16' W 085°32'.

; draft 5.1 m.

Type: Other ship. MMSI: 366922280.

Date/timePositionNaut miles runAvg speedWind from/ knotsBaromVisibWave heightAir tempDewpointWater temp
2014-Nov-23 20:33N 45°16' W 085°32'10 9.8
2014-Nov-23 19:33N 45°11' W 085°44'9 7.9
2014-Nov-23 18:28N 45°08' W 085°55'17 8.8
2014-Nov-23 16:33N 45°23' W 086°08'  
2014-Nov-16 11:34N 45°19' W 085°18'0 0.1
2014-Nov-16 10:33N 45°19' W 085°18'0 0.0
2014-Nov-16 09:33N 45°19' W 085°18'0 0.0
2014-Nov-16 08:33N 45°19' W 085°18'0 0.0
2014-Nov-16 07:34N 45°19' W 085°18'0 0.0
2014-Nov-16 06:33N 45°19' W 085°18'0 0.0
2014-Nov-16 05:34N 45°19' W 085°18'0 0.0
2014-Nov-16 04:33N 45°19' W 085°18'0 0.0
2014-Nov-16 03:33N 45°19' W 085°18'0 0.0
2014-Nov-16 02:33N 45°19' W 085°18'0 0.0
2014-Nov-16 01:33N 45°19' W 085°18'0 0.0
2014-Nov-16 00:33N 45°19' W 085°18'0 0.0
2014-Nov-15 23:33N 45°19' W 085°18'0 0.0
2014-Nov-15 22:34N 45°19' W 085°18'0 0.0
2014-Nov-15 21:33N 45°19' W 085°18'0 0.0
2014-Nov-15 20:33N 45°19' W 085°18'0 0.0
2014-Nov-15 19:33N 45°19' W 085°18'0 0.0
2014-Nov-15 18:34N 45°19' W 085°18'0 0.0
2014-Nov-15 17:34N 45°19' W 085°18'0 0.0
2014-Nov-15 16:33N 45°19' W 085°18'0 0.0
2014-Nov-15 15:33N 45°19' W 085°18'1 1.1
2014-Nov-15 14:34N 45°20' W 085°17'1 0.9
2014-Nov-15 13:34N 45°19' W 085°17'0 0.0
2014-Nov-15 12:33N 45°19' W 085°17'0 0.0
2014-Nov-15 11:33N 45°19' W 085°17'0 0.0
2014-Nov-15 10:33N 45°19' W 085°17'0 0.0
2014-Nov-15 09:34N 45°19' W 085°17'2 2.1
2014-Nov-15 08:34N 45°20' W 085°20'10 9.6
2014-Nov-15 07:33N 45°15' W 085°32'9 9.5
2014-Nov-15 06:33N 45°10' W 085°43'  

Dump ship's entire track history